createdAt,value
2023-03-10T00:01:43.644Z,54.50
2023-03-10T00:04:14.651Z,54.43
2023-03-10T00:06:45.561Z,54.77
2023-03-10T00:09:16.429Z,54.69
2023-03-10T00:11:47.453Z,54.92
2023-03-10T00:14:18.952Z,55.05
2023-03-10T00:16:49.671Z,55.16
2023-03-10T00:19:20.502Z,55.05
2023-03-10T00:21:51.156Z,55.19
2023-03-10T00:24:21.914Z,55.15
2023-03-10T00:26:52.610Z,55.08
2023-03-10T00:29:23.359Z,55.31
2023-03-10T00:31:54.064Z,55.27
2023-03-10T00:34:24.905Z,55.39
2023-03-10T00:36:55.874Z,55.50
2023-03-10T00:39:26.657Z,55.46
2023-03-10T00:41:57.380Z,55.45
2023-03-10T00:44:28.466Z,55.51
2023-03-10T00:46:59.382Z,55.47
2023-03-10T00:49:30.106Z,55.56
2023-03-10T00:52:00.914Z,55.53
2023-03-10T00:54:31.758Z,55.63
2023-03-10T00:57:03.454Z,55.71
2023-03-10T00:59:47.776Z,55.73
2023-03-10T01:02:20.983Z,55.77
2023-03-10T01:04:51.796Z,55.91
2023-03-10T01:07:22.547Z,56.06
2023-03-10T01:09:55.900Z,56.09
2023-03-10T01:12:26.854Z,56.00
2023-03-10T01:14:57.641Z,56.19
2023-03-10T01:17:28.385Z,56.17
2023-03-10T01:19:59.414Z,56.22
2023-03-10T01:22:30.173Z,56.37
2023-03-10T01:25:01.038Z,56.33
2023-03-10T01:27:31.765Z,56.32
2023-03-10T01:30:02.580Z,56.62
2023-03-10T01:32:33.601Z,56.62
2023-03-10T01:35:04.359Z,56.69
2023-03-10T01:37:35.283Z,56.67
2023-03-10T01:40:08.821Z,56.77
2023-03-10T01:42:39.575Z,56.77
2023-03-10T01:45:11.983Z,56.87
2023-03-10T01:47:43.150Z,57.02
2023-03-10T01:50:15.484Z,56.83
2023-03-10T01:52:46.611Z,56.85
2023-03-10T01:55:19.312Z,56.97
2023-03-10T01:57:51.701Z,57.01
2023-03-10T02:00:22.816Z,57.07
2023-03-10T02:02:54.946Z,57.21
2023-03-10T02:05:25.713Z,57.34
2023-03-10T02:07:56.486Z,57.21
2023-03-10T02:10:27.489Z,57.27
2023-03-10T02:12:58.226Z,57.41
2023-03-10T02:15:28.998Z,57.34
2023-03-10T02:17:59.844Z,57.67
2023-03-10T02:20:34.279Z,57.63
2023-03-10T02:23:05.173Z,57.86
2023-03-10T02:25:37.443Z,57.94
2023-03-10T02:28:08.247Z,58.05
2023-03-10T02:30:40.097Z,57.88
2023-03-10T02:33:11.512Z,58.08
2023-03-10T02:35:42.371Z,58.27
2023-03-10T02:38:13.218Z,58.13
2023-03-10T02:40:45.915Z,58.28
2023-03-10T02:43:18.457Z,58.42
2023-03-10T02:45:50.017Z,58.36
2023-03-10T02:48:22.223Z,58.41
2023-03-10T02:50:53.100Z,58.57
2023-03-10T02:53:25.387Z,58.77
2023-03-10T02:55:56.251Z,58.55
2023-03-10T02:58:27.491Z,58.73
2023-03-10T03:00:58.368Z,58.89
2023-03-10T03:03:29.214Z,59.04
2023-03-10T03:06:00.130Z,59.17
2023-03-10T03:08:30.768Z,59.21
2023-03-10T03:11:01.671Z,59.47
2023-03-10T03:13:32.464Z,59.53
2023-03-10T03:16:03.336Z,59.60
2023-03-10T03:18:34.179Z,59.61
2023-03-10T03:21:06.898Z,59.70
2023-03-10T03:23:38.209Z,59.69
2023-03-10T03:26:14.242Z,59.94
2023-03-10T03:28:45.729Z,60.06
2023-03-10T03:31:17.680Z,60.12
2023-03-10T03:33:48.724Z,60.23
2023-03-10T03:36:19.816Z,60.26
2023-03-10T03:38:50.712Z,60.24
2023-03-10T03:41:21.522Z,60.46
2023-03-10T03:43:52.304Z,60.56
2023-03-10T03:46:23.220Z,60.97
2023-03-10T03:48:53.989Z,60.86
2023-03-10T03:51:24.690Z,60.72
2023-03-10T03:53:55.467Z,60.76
2023-03-10T03:56:26.206Z,60.96
2023-03-10T03:58:56.943Z,61.02
2023-03-10T04:01:27.733Z,61.19
2023-03-10T04:03:58.468Z,61.16
2023-03-10T04:06:29.265Z,61.21
2023-03-10T04:09:00.023Z,61.35
2023-03-10T04:11:30.779Z,61.33
2023-03-10T04:14:01.674Z,61.24
2023-03-10T04:16:32.437Z,61.35
2023-03-10T04:19:03.244Z,61.52
2023-03-10T04:21:34.077Z,61.48
2023-03-10T04:24:05.190Z,61.25
2023-03-10T04:26:36.000Z,61.33
2023-03-10T04:29:06.818Z,61.48
2023-03-10T04:31:37.931Z,61.52
2023-03-10T04:34:08.764Z,61.65
2023-03-10T04:36:39.563Z,61.68
2023-03-10T04:39:11.158Z,61.83
2023-03-10T04:41:41.860Z,61.87
2023-03-10T04:44:29.892Z,61.70
2023-03-10T04:47:01.427Z,61.84
2023-03-10T04:49:32.206Z,61.91
2023-03-10T04:52:02.983Z,61.80
2023-03-10T04:54:40.924Z,61.97
2023-03-10T04:57:13.114Z,61.99
2023-03-10T04:59:44.071Z,61.80
2023-03-10T05:02:15.009Z,61.71
2023-03-10T05:04:45.945Z,61.66
2023-03-10T05:07:16.709Z,61.73
2023-03-10T05:09:48.493Z,61.87
2023-03-10T05:12:19.360Z,62.02
2023-03-10T05:14:50.113Z,62.09
2023-03-10T05:17:20.727Z,62.13
2023-03-10T05:19:51.491Z,61.97
2023-03-10T05:22:23.574Z,62.30
2023-03-10T05:24:54.305Z,62.36
2023-03-10T05:27:26.276Z,62.25
2023-03-10T05:29:57.087Z,62.23
2023-03-10T05:32:28.108Z,62.25
2023-03-10T05:34:58.992Z,62.26
2023-03-10T05:37:30.035Z,62.05
2023-03-10T05:40:01.022Z,62.31
2023-03-10T05:42:31.962Z,62.59
2023-03-10T05:45:05.113Z,62.52
2023-03-10T05:47:35.994Z,62.34
2023-03-10T05:50:07.484Z,62.41
2023-03-10T05:52:39.574Z,62.65
2023-03-10T05:55:12.898Z,62.19
2023-03-10T05:57:43.840Z,62.18
2023-03-10T06:00:17.121Z,62.34
2023-03-10T06:02:47.971Z,62.58
2023-03-10T06:05:18.905Z,62.39
2023-03-10T06:07:49.596Z,62.16
2023-03-10T06:10:20.549Z,62.43
2023-03-10T06:12:51.430Z,62.62
2023-03-10T06:15:22.199Z,62.36
2023-03-10T06:17:53.024Z,62.63
2023-03-10T06:20:23.820Z,62.35
2023-03-10T06:22:54.487Z,62.33
2023-03-10T06:25:25.381Z,62.45
2023-03-10T06:27:56.242Z,62.57
2023-03-10T06:30:27.060Z,62.65
2023-03-10T06:32:57.909Z,62.68
2023-03-10T06:35:28.809Z,62.77
2023-03-10T06:37:59.535Z,62.71
2023-03-10T06:40:30.502Z,62.62
2023-03-10T06:43:01.267Z,62.70
2023-03-10T06:45:32.025Z,62.57
2023-03-10T06:48:03.145Z,62.40
2023-03-10T06:50:33.887Z,62.64
2023-03-10T06:53:04.630Z,62.62
2023-03-10T06:55:35.410Z,62.41
2023-03-10T06:58:06.395Z,62.27
2023-03-10T07:00:37.016Z,62.16
2023-03-10T07:03:07.845Z,62.22
2023-03-10T07:05:38.715Z,62.15
2023-03-10T07:08:09.418Z,62.01
2023-03-10T07:10:40.309Z,61.85
2023-03-10T07:13:13.972Z,61.63
2023-03-10T07:15:44.943Z,61.62
2023-03-10T07:18:16.095Z,61.73
2023-03-10T07:20:47.966Z,61.90
2023-03-10T07:23:18.784Z,61.85
2023-03-10T07:25:52.524Z,61.68
2023-03-10T07:28:23.306Z,61.82
2023-03-10T07:30:55.180Z,61.67
2023-03-10T07:33:26.128Z,61.77
2023-03-10T07:35:57.104Z,61.61
2023-03-10T07:38:28.000Z,61.51
2023-03-10T07:41:00.851Z,61.40
2023-03-10T07:43:32.794Z,61.54
2023-03-10T07:46:03.542Z,61.34
2023-03-10T07:48:34.702Z,61.10
2023-03-10T07:51:05.760Z,61.08
2023-03-10T07:53:37.034Z,61.00
2023-03-10T07:56:08.289Z,61.13
2023-03-10T07:58:39.709Z,61.15
2023-03-10T08:01:11.127Z,61.15
2023-03-10T08:03:41.959Z,61.06
2023-03-10T08:06:12.699Z,60.93
2023-03-10T08:08:43.352Z,60.94
2023-03-10T08:11:14.190Z,60.89
2023-03-10T08:13:47.541Z,60.83
2023-03-10T08:16:19.781Z,60.80
2023-03-10T08:18:52.241Z,60.66
2023-03-10T08:21:23.169Z,60.67
2023-03-10T08:23:53.820Z,60.36
2023-03-10T08:26:24.614Z,60.54
2023-03-10T08:28:55.389Z,60.51
2023-03-10T08:31:26.247Z,60.40
2023-03-10T08:33:58.169Z,60.42
2023-03-10T08:36:30.093Z,60.22
2023-03-10T08:39:02.452Z,60.12
2023-03-10T08:41:35.575Z,59.92
2023-03-10T08:44:07.852Z,59.99
2023-03-10T08:46:38.925Z,59.95
2023-03-10T08:49:09.714Z,59.81
2023-03-10T08:51:40.444Z,59.82
2023-03-10T08:54:12.194Z,59.58
2023-03-10T08:56:43.155Z,59.45
2023-03-10T08:59:14.077Z,59.38
2023-03-10T09:01:45.001Z,59.33
2023-03-10T09:04:15.780Z,59.10
2023-03-10T09:06:46.628Z,59.04
2023-03-10T09:09:17.445Z,58.76
2023-03-10T09:11:48.232Z,58.83
2023-03-10T09:14:20.355Z,58.74
2023-03-10T09:16:51.046Z,58.71
2023-03-10T09:19:21.679Z,58.53
2023-03-10T09:21:52.373Z,58.52
2023-03-10T09:24:23.160Z,58.40
2023-03-10T09:26:55.946Z,58.30
2023-03-10T09:29:42.263Z,58.34
2023-03-10T09:32:14.034Z,57.92
2023-03-10T09:34:46.785Z,57.87
2023-03-10T09:37:17.632Z,57.69
2023-03-10T09:39:48.422Z,57.44
2023-03-10T09:42:37.858Z,57.43
2023-03-10T09:45:12.136Z,57.34
2023-03-10T09:47:46.618Z,57.14
2023-03-10T09:50:26.147Z,57.03
2023-03-10T09:52:59.797Z,57.01
2023-03-10T09:55:31.002Z,56.95
2023-03-10T09:58:03.941Z,56.87
2023-03-10T10:00:37.232Z,56.78
2023-03-10T10:03:09.381Z,56.43
2023-03-10T10:05:40.273Z,56.13
2023-03-10T10:08:14.669Z,56.06
2023-03-10T10:10:45.539Z,55.75
2023-03-10T10:13:16.783Z,55.43
2023-03-10T10:15:49.992Z,55.22
2023-03-10T10:18:25.683Z,54.90
2023-03-10T10:20:59.322Z,54.67
2023-03-10T10:23:32.849Z,54.14
2023-03-10T10:26:07.081Z,54.38
2023-03-10T10:28:42.002Z,54.19
2023-03-10T10:31:17.402Z,53.58
2023-03-10T10:33:55.619Z,53.39
2023-03-10T10:36:26.814Z,53.26
2023-03-10T10:38:57.949Z,52.92
2023-03-10T10:41:30.104Z,52.97
2023-03-10T10:44:01.755Z,52.90
2023-03-10T10:46:32.899Z,52.65
2023-03-10T10:49:19.739Z,52.41
2023-03-10T10:51:59.107Z,51.91
2023-03-10T10:54:30.362Z,51.60
2023-03-10T10:57:01.961Z,51.39
2023-03-10T10:59:33.497Z,51.42
2023-03-10T11:02:04.599Z,51.39
2023-03-10T11:04:44.241Z,51.04
2023-03-10T11:07:19.070Z,50.66
2023-03-10T11:09:49.919Z,50.46
2023-03-10T11:12:22.273Z,50.33
2023-03-10T11:14:57.737Z,50.10
2023-03-10T11:17:29.971Z,49.49
2023-03-10T11:20:05.239Z,49.24
2023-03-10T11:22:37.772Z,49.09
2023-03-10T11:25:10.178Z,48.98
2023-03-10T11:27:45.421Z,49.02
2023-03-10T11:30:17.230Z,48.51
2023-03-10T11:32:51.673Z,48.42
2023-03-10T11:35:25.605Z,47.75
2023-03-10T11:37:58.071Z,47.58
2023-03-10T11:40:30.533Z,46.96
2023-03-10T11:43:01.798Z,46.90
2023-03-10T11:45:34.033Z,46.82
2023-03-10T11:48:27.277Z,46.60
2023-03-10T11:50:59.394Z,45.96
2023-03-10T11:53:33.014Z,45.75
2023-03-10T11:56:04.128Z,45.23
2023-03-10T11:58:37.480Z,45.41
2023-03-10T12:01:08.474Z,44.78
2023-03-10T12:03:43.965Z,45.14
2023-03-10T12:06:16.333Z,44.86
2023-03-10T12:08:47.194Z,44.70
2023-03-10T12:11:18.600Z,44.47
2023-03-10T12:13:49.888Z,44.27
2023-03-10T12:16:21.830Z,43.62
2023-03-10T12:18:53.605Z,43.37
2023-03-10T12:21:25.134Z,43.46
2023-03-10T12:23:56.520Z,43.41
2023-03-10T12:26:45.233Z,43.57
2023-03-10T12:29:32.493Z,42.99
2023-03-10T12:32:03.416Z,42.79
2023-03-10T12:34:34.801Z,42.58
2023-03-10T12:37:06.984Z,42.26
2023-03-10T12:39:39.810Z,42.09
2023-03-10T12:42:26.147Z,41.60
2023-03-10T12:44:58.424Z,41.46
2023-03-10T12:47:32.164Z,41.26
2023-03-10T12:50:05.296Z,41.13
2023-03-10T12:52:48.100Z,40.84
2023-03-10T12:55:21.156Z,40.77
2023-03-10T12:57:55.214Z,40.72
2023-03-10T13:00:31.129Z,40.66
2023-03-10T13:03:03.128Z,40.23
2023-03-10T13:05:35.448Z,39.96
2023-03-10T13:08:11.842Z,40.10
2023-03-10T13:10:42.761Z,40.05
2023-03-10T13:13:15.764Z,39.69
2023-03-10T13:15:48.203Z,39.79
2023-03-10T13:18:19.805Z,39.45
2023-03-10T13:20:51.232Z,39.34
2023-03-10T13:23:24.105Z,39.05
2023-03-10T13:25:58.341Z,39.01
2023-03-10T13:28:29.570Z,38.67
2023-03-10T13:31:19.797Z,38.57
2023-03-10T13:33:53.749Z,38.59
2023-03-10T13:36:27.491Z,38.23
2023-03-10T13:38:58.553Z,38.30
2023-03-10T13:41:30.392Z,38.33
2023-03-10T13:44:01.219Z,38.05
2023-03-10T13:46:32.731Z,38.19
2023-03-10T13:49:06.500Z,38.24
2023-03-10T13:51:37.856Z,38.16
2023-03-10T13:54:18.691Z,38.05
2023-03-10T13:56:49.622Z,37.78
2023-03-10T13:59:22.018Z,37.75
2023-03-10T14:01:54.209Z,37.81
2023-03-10T14:04:38.314Z,37.84
2023-03-10T14:07:09.733Z,37.90
2023-03-10T14:09:40.447Z,37.86
2023-03-10T14:12:11.233Z,37.75
2023-03-10T14:14:42.665Z,37.87
2023-03-10T14:20:13.964Z,37.65
2023-03-10T14:22:44.551Z,37.59
2023-03-10T14:25:16.778Z,37.55
2023-03-10T14:27:48.248Z,37.54
2023-03-10T14:30:26.554Z,37.32
2023-03-10T14:32:57.906Z,37.04
2023-03-10T14:35:29.523Z,37.17
2023-03-10T14:38:00.300Z,37.17
2023-03-10T14:40:31.019Z,37.29
2023-03-10T14:43:02.434Z,37.25
2023-03-10T14:45:34.070Z,37.38
2023-03-10T14:48:05.827Z,37.33
2023-03-10T14:50:36.904Z,37.25
2023-03-10T14:53:10.418Z,37.21
2023-03-10T14:55:41.454Z,37.31
2023-03-10T14:58:13.310Z,37.23
2023-03-10T15:00:44.090Z,37.26
2023-03-10T15:03:15.262Z,37.27
2023-03-10T15:05:49.046Z,37.23
2023-03-10T15:08:20.338Z,37.17
2023-03-10T15:10:51.280Z,37.37
2023-03-10T15:13:22.729Z,37.25
2023-03-10T15:15:53.569Z,37.23
2023-03-10T15:18:27.161Z,37.30
2023-03-10T15:21:03.438Z,37.23
2023-03-10T15:23:34.851Z,37.26
2023-03-10T15:26:09.806Z,37.18
2023-03-10T15:28:40.691Z,37.13
2023-03-10T15:31:11.557Z,37.22
2023-03-10T15:33:42.364Z,37.26
2023-03-10T15:36:13.229Z,37.17
2023-03-10T15:38:44.102Z,37.27
2023-03-10T15:41:17.133Z,37.32
2023-03-10T15:43:48.033Z,37.31
2023-03-10T15:46:19.060Z,37.24
2023-03-10T15:48:49.744Z,37.32
2023-03-10T15:51:21.214Z,37.37
2023-03-10T15:53:51.926Z,37.35
2023-03-10T15:56:22.654Z,37.45
2023-03-10T15:58:54.091Z,37.27
2023-03-10T16:01:25.052Z,37.36
2023-03-10T16:10:34.952Z,37.56
2023-03-10T16:13:05.620Z,37.33
2023-03-10T16:15:36.473Z,37.46
2023-03-10T16:18:07.558Z,37.41
2023-03-10T16:20:38.351Z,37.44
2023-03-10T16:23:09.282Z,37.46
2023-03-10T16:25:41.066Z,37.32
2023-03-10T16:28:11.770Z,37.45
2023-03-10T16:30:42.738Z,37.44
2023-03-10T16:33:14.011Z,37.62
2023-03-10T16:35:45.750Z,37.66
2023-03-10T16:38:16.620Z,37.43
2023-03-10T16:43:00.356Z,37.79
2023-03-10T16:45:32.794Z,38.10
2023-03-10T16:48:03.488Z,38.42
2023-03-10T16:50:38.786Z,38.68
2023-03-10T16:53:11.108Z,38.98
2023-03-10T16:55:43.505Z,39.32
2023-03-10T16:58:15.820Z,39.59
2023-03-10T17:00:48.079Z,39.90
2023-03-10T17:03:20.521Z,40.34
2023-03-10T17:05:53.876Z,40.99
2023-03-10T17:08:26.438Z,41.18
2023-03-10T17:10:58.693Z,41.51
2023-03-10T17:13:31.116Z,41.91
2023-03-10T17:16:03.919Z,42.57
2023-03-10T17:18:36.372Z,43.03
2023-03-10T17:21:12.811Z,43.23
2023-03-10T17:23:45.594Z,43.48
2023-03-10T17:26:18.437Z,43.71
2023-03-10T17:28:52.131Z,44.08
2023-03-10T17:31:27.299Z,44.43
2023-03-10T17:34:01.877Z,44.57
2023-03-10T17:36:34.625Z,44.78
2023-03-10T17:39:08.067Z,45.20
2023-03-10T17:41:40.764Z,45.40
2023-03-10T17:44:13.563Z,45.57
2023-03-10T17:46:45.491Z,45.87
2023-03-10T17:49:19.367Z,46.06
2023-03-10T17:51:52.137Z,46.29
2023-03-10T17:54:24.954Z,46.43
2023-03-10T17:56:57.624Z,46.66
2023-03-10T17:59:32.099Z,46.87
2023-03-10T18:02:04.730Z,46.99
2023-03-10T18:04:40.582Z,47.11
2023-03-10T18:07:13.237Z,47.20
2023-03-10T18:09:45.805Z,47.27
2023-03-10T18:12:16.907Z,47.39
2023-03-10T18:14:49.497Z,47.64
2023-03-10T18:17:22.135Z,47.77
2023-03-10T18:19:54.274Z,47.93
2023-03-10T18:22:27.056Z,47.99
2023-03-10T18:25:01.829Z,48.28
2023-03-10T18:27:35.507Z,48.38
2023-03-10T18:30:10.244Z,48.35
2023-03-10T18:32:43.413Z,48.58
2023-03-10T18:35:16.143Z,48.67
2023-03-10T18:37:47.128Z,48.84
2023-03-10T18:40:20.119Z,49.01
2023-03-10T18:42:52.796Z,49.19
2023-03-10T18:45:26.146Z,49.12
2023-03-10T18:47:58.766Z,49.19
2023-03-10T18:50:31.285Z,49.28
2023-03-10T18:53:03.949Z,49.39
2023-03-10T18:55:34.854Z,49.36
2023-03-10T18:58:07.480Z,49.42
2023-03-10T19:00:40.284Z,49.65
2023-03-10T19:03:13.874Z,49.71
2023-03-10T19:05:47.140Z,49.80
2023-03-10T19:08:20.161Z,49.75
2023-03-10T19:10:59.372Z,49.79
2023-03-10T19:13:32.372Z,49.84
2023-03-10T19:16:08.460Z,49.84
2023-03-10T19:18:41.236Z,50.00
2023-03-10T19:21:13.165Z,50.04
2023-03-10T19:23:45.804Z,50.21
2023-03-10T19:26:16.661Z,50.43
2023-03-10T19:28:49.326Z,50.60
2023-03-10T19:31:20.371Z,50.62
2023-03-10T19:33:53.192Z,50.79
2023-03-10T19:36:29.718Z,50.87
2023-03-10T19:39:02.223Z,51.00
2023-03-10T19:41:34.757Z,51.22
2023-03-10T19:44:05.812Z,51.15
2023-03-10T19:46:38.700Z,51.28
2023-03-10T19:49:11.469Z,51.41
2023-03-10T19:51:42.312Z,51.51
2023-03-10T19:54:15.122Z,51.54
2023-03-10T19:56:46.152Z,51.65
2023-03-10T19:59:18.694Z,51.87
2023-03-10T20:01:51.761Z,51.91
2023-03-10T20:04:24.448Z,52.15
2023-03-10T20:06:57.148Z,52.14
2023-03-10T20:09:29.788Z,52.11
2023-03-10T20:12:00.766Z,52.13
2023-03-10T20:14:33.365Z,52.14
2023-03-10T20:17:05.970Z,52.21
2023-03-10T20:19:36.823Z,52.24
2023-03-10T20:22:09.353Z,52.21
2023-03-10T20:24:41.819Z,52.17
2023-03-10T20:27:14.509Z,52.37
2023-03-10T20:29:47.107Z,52.37
2023-03-10T20:32:18.743Z,52.47
2023-03-10T20:34:51.306Z,52.52
2023-03-10T20:37:22.387Z,52.57
2023-03-10T20:39:55.635Z,52.58
2023-03-10T20:42:29.617Z,52.64
2023-03-10T20:45:05.191Z,52.75
2023-03-10T20:47:38.033Z,52.80
2023-03-10T20:50:09.797Z,52.80
2023-03-10T20:52:43.514Z,52.83
2023-03-10T20:55:20.330Z,52.92
2023-03-10T20:57:55.206Z,53.06
2023-03-10T21:00:29.967Z,52.95
2023-03-10T21:03:02.899Z,52.94
2023-03-10T21:05:35.526Z,53.13
2023-03-10T21:08:08.550Z,53.27
2023-03-10T21:10:41.869Z,53.40
2023-03-10T21:13:14.515Z,53.56
2023-03-10T21:15:45.517Z,53.29
2023-03-10T21:18:18.213Z,53.24
2023-03-10T21:20:50.777Z,53.51
2023-03-10T21:23:23.342Z,53.61
2023-03-10T21:25:55.893Z,53.81
2023-03-10T21:28:28.479Z,53.89
2023-03-10T21:31:01.198Z,53.84
2023-03-10T21:33:32.037Z,54.04
2023-03-10T21:36:05.401Z,54.04
2023-03-10T21:38:38.245Z,53.92
2023-03-10T21:41:10.919Z,53.87
2023-03-10T21:43:43.348Z,54.09
2023-03-10T21:46:16.175Z,54.16
2023-03-10T21:48:48.970Z,54.22
2023-03-10T21:51:23.286Z,54.12
2023-03-10T21:53:56.476Z,54.11
2023-03-10T21:56:29.406Z,54.21
2023-03-10T21:59:02.244Z,54.27
2023-03-10T22:01:35.086Z,54.20
2023-03-10T22:04:07.890Z,54.21
2023-03-10T22:06:38.848Z,54.24
2023-03-10T22:09:11.524Z,54.39
2023-03-10T22:11:42.543Z,54.41
2023-03-10T22:14:15.440Z,54.39
2023-03-10T22:23:57.353Z,54.42
2023-03-10T22:26:28.211Z,54.43
2023-03-10T22:29:01.098Z,54.46
2023-03-10T22:31:33.750Z,54.46
2023-03-10T22:34:04.570Z,54.70
2023-03-10T22:36:37.056Z,54.70
2023-03-10T22:39:07.827Z,54.69
2023-03-10T22:41:40.284Z,54.78
2023-03-10T22:44:11.110Z,54.82
2023-03-10T22:46:46.230Z,54.93
2023-03-10T22:49:18.872Z,55.03
2023-03-10T22:51:51.479Z,55.08
2023-03-10T22:54:22.276Z,55.10
2023-03-10T22:56:54.902Z,55.21
2023-03-10T22:59:26.395Z,55.28
2023-03-10T23:01:58.846Z,55.37
2023-03-10T23:04:30.144Z,55.53
2023-03-10T23:07:02.557Z,55.51
2023-03-10T23:09:35.174Z,55.55
2023-03-10T23:12:06.099Z,55.66
2023-03-10T23:14:38.571Z,55.66
2023-03-10T23:17:11.158Z,55.84
2023-03-10T23:19:41.868Z,55.88
2023-03-10T23:22:14.468Z,55.94
2023-03-10T23:24:47.238Z,56.05
2023-03-10T23:27:20.140Z,56.10
2023-03-10T23:29:52.535Z,56.08
2023-03-10T23:32:42.520Z,56.08
2023-03-10T23:35:13.976Z,56.29
2023-03-10T23:37:46.401Z,56.26
2023-03-10T23:40:20.730Z,56.36
2023-03-10T23:42:53.617Z,56.44
2023-03-10T23:45:27.313Z,56.48
2023-03-10T23:48:01.676Z,56.54
2023-03-10T23:50:36.605Z,56.57
2023-03-10T23:53:10.817Z,56.69
2023-03-10T23:55:44.948Z,56.78
2023-03-10T23:58:19.788Z,56.68
